createdAt,value
2018-05-31T00:01:08.934Z,21.60
2018-05-31T00:03:35.352Z,21.60
2018-05-31T00:06:01.560Z,21.60
2018-05-31T00:08:27.799Z,21.60
2018-05-31T00:10:54.052Z,21.60
2018-05-31T00:13:20.261Z,21.60
2018-05-31T00:15:46.498Z,21.60
2018-05-31T00:18:12.710Z,21.60
2018-05-31T00:20:38.968Z,21.60
2018-05-31T00:23:05.952Z,21.60
2018-05-31T00:25:32.223Z,21.50
2018-05-31T00:27:58.461Z,21.60
2018-05-31T00:30:24.695Z,21.60
2018-05-31T00:32:51.659Z,21.50
2018-05-31T00:35:17.894Z,21.50
2018-05-31T00:37:44.084Z,21.50
2018-05-31T00:40:10.337Z,21.40
2018-05-31T00:42:37.317Z,21.40
2018-05-31T00:45:03.560Z,21.40
2018-05-31T00:47:29.807Z,21.30
2018-05-31T00:49:56.026Z,21.30
2018-05-31T00:52:22.272Z,21.30
2018-05-31T00:54:48.485Z,21.30
2018-05-31T00:57:14.692Z,21.30
2018-05-31T00:59:40.916Z,21.30
2018-05-31T01:02:07.131Z,21.30
2018-05-31T01:04:33.375Z,21.30
2018-05-31T01:06:59.587Z,21.30
2018-05-31T01:09:25.809Z,21.30
2018-05-31T01:11:52.070Z,21.20
2018-05-31T01:14:18.415Z,21.00
2018-05-31T01:16:44.630Z,20.90
2018-05-31T01:19:10.864Z,20.80
2018-05-31T01:21:37.066Z,20.80
2018-05-31T01:24:03.315Z,20.80
2018-05-31T01:26:29.542Z,20.80
2018-05-31T01:28:55.782Z,20.70
2018-05-31T01:31:22.040Z,20.60
2018-05-31T01:33:49.043Z,20.50
2018-05-31T01:36:15.281Z,20.50
2018-05-31T01:38:41.536Z,20.60
2018-05-31T01:41:08.541Z,20.80
2018-05-31T01:43:34.771Z,20.70
2018-05-31T01:46:01.050Z,20.80
2018-05-31T01:48:28.033Z,21.00
2018-05-31T01:50:54.301Z,20.90
2018-05-31T01:53:20.556Z,21.00
2018-05-31T01:55:47.505Z,21.00
2018-05-31T01:58:13.739Z,20.90
2018-05-31T02:00:39.994Z,21.00
2018-05-31T02:03:06.280Z,21.00
2018-05-31T02:05:33.238Z,21.00
2018-05-31T02:07:59.471Z,20.90
2018-05-31T02:10:26.432Z,20.90
2018-05-31T02:12:52.687Z,20.90
2018-05-31T02:15:18.920Z,21.00
2018-05-31T02:17:45.164Z,20.90
2018-05-31T02:20:11.377Z,20.90
2018-05-31T02:22:37.597Z,20.90
2018-05-31T02:25:03.813Z,20.90
2018-05-31T02:27:29.977Z,20.90
2018-05-31T02:29:56.228Z,20.90
2018-05-31T02:32:23.187Z,20.90
2018-05-31T02:34:49.415Z,20.80
2018-05-31T02:37:15.638Z,20.80
2018-05-31T02:39:42.621Z,20.70
2018-05-31T02:42:08.874Z,20.70
2018-05-31T02:44:36.914Z,20.70
2018-05-31T02:47:03.167Z,20.70
2018-05-31T02:49:29.400Z,20.70
2018-05-31T02:51:55.650Z,20.70
2018-05-31T02:54:47.638Z,20.60
2018-05-31T02:57:13.864Z,20.60
2018-05-31T02:59:40.084Z,20.60
2018-05-31T03:02:06.313Z,20.60
2018-05-31T03:04:32.538Z,20.50
2018-05-31T03:06:58.760Z,20.50
2018-05-31T03:09:25.019Z,20.40
2018-05-31T03:11:51.285Z,20.40
2018-05-31T03:14:18.239Z,20.30
2018-05-31T03:16:44.476Z,20.20
2018-05-31T03:19:10.702Z,20.30
2018-05-31T03:21:36.957Z,20.30
2018-05-31T03:24:03.200Z,20.30
2018-05-31T03:26:29.408Z,20.30
2018-05-31T03:28:55.699Z,20.20
2018-05-31T03:31:22.653Z,20.20
2018-05-31T03:33:49.620Z,20.10
2018-05-31T03:36:16.036Z,20.10
2018-05-31T03:38:43.008Z,20.10
2018-05-31T03:41:21.680Z,20.10
2018-05-31T03:43:47.919Z,20.10
2018-05-31T03:46:14.915Z,20.10
2018-05-31T03:48:41.165Z,20.10
2018-05-31T03:51:07.376Z,20.10
2018-05-31T03:53:33.663Z,20.00
2018-05-31T03:56:00.310Z,20.00
2018-05-31T04:06:56.082Z,19.90
2018-05-31T04:09:22.838Z,19.80
2018-05-31T04:12:03.848Z,19.80
2018-05-31T04:14:30.346Z,19.80
2018-05-31T04:16:57.363Z,19.70
2018-05-31T04:19:24.307Z,19.70
2018-05-31T04:21:51.809Z,19.60
2018-05-31T04:24:18.122Z,19.60
2018-05-31T04:26:44.402Z,19.60
2018-05-31T04:29:10.656Z,19.60
2018-05-31T04:31:36.881Z,19.50
2018-05-31T04:34:03.195Z,19.50
2018-05-31T04:36:30.137Z,19.50
2018-05-31T04:38:57.117Z,19.50
2018-05-31T04:41:23.335Z,19.50
2018-05-31T04:43:49.575Z,19.50
2018-05-31T04:46:15.857Z,19.50
2018-05-31T04:48:42.112Z,19.50
2018-05-31T04:51:08.386Z,19.50
2018-05-31T04:53:34.689Z,19.50
2018-05-31T04:56:00.843Z,19.50
2018-05-31T04:58:27.092Z,19.50
2018-05-31T05:00:54.392Z,19.50
2018-05-31T05:03:21.641Z,19.50
2018-05-31T05:05:47.938Z,19.40
2018-05-31T05:08:14.317Z,19.40
2018-05-31T05:10:40.571Z,19.40
2018-05-31T05:13:06.796Z,19.40
2018-05-31T05:15:33.122Z,19.40
2018-05-31T05:18:01.030Z,19.40
2018-05-31T05:20:28.259Z,19.40
2018-05-31T05:22:54.499Z,19.40
2018-05-31T05:25:20.761Z,19.40
2018-05-31T05:27:47.762Z,19.40
2018-05-31T05:30:15.382Z,19.40
2018-05-31T05:32:42.486Z,19.40
2018-05-31T05:35:08.962Z,19.40
2018-05-31T05:37:35.195Z,19.30
2018-05-31T05:40:01.478Z,19.40
2018-05-31T05:42:28.449Z,19.30
2018-05-31T05:44:55.500Z,19.30
2018-05-31T05:47:21.753Z,19.20
2018-05-31T05:49:48.023Z,19.30
2018-05-31T05:52:14.346Z,19.20
2018-05-31T05:54:40.577Z,19.30
2018-05-31T05:57:08.953Z,19.30
2018-05-31T05:59:35.261Z,19.30
2018-05-31T06:02:01.544Z,19.30
2018-05-31T06:04:27.882Z,19.30
2018-05-31T06:06:54.174Z,19.40
2018-05-31T06:09:20.421Z,19.40
2018-05-31T06:11:47.420Z,19.50
2018-05-31T06:14:37.910Z,19.40
2018-05-31T06:17:04.187Z,19.50
2018-05-31T06:19:31.234Z,19.50
2018-05-31T06:21:57.540Z,19.50
2018-05-31T06:24:23.742Z,19.50
2018-05-31T06:26:50.028Z,19.60
2018-05-31T06:29:17.026Z,19.60
2018-05-31T06:31:43.311Z,19.60
2018-05-31T06:34:09.663Z,19.60
2018-05-31T06:36:36.163Z,19.60
2018-05-31T06:39:02.524Z,19.60
2018-05-31T06:41:29.049Z,19.60
2018-05-31T06:43:55.328Z,19.70
2018-05-31T06:46:21.550Z,19.70
2018-05-31T06:48:47.782Z,19.70
2018-05-31T06:51:14.176Z,19.70
2018-05-31T06:53:42.090Z,19.70
2018-05-31T06:56:09.934Z,19.80
2018-05-31T06:58:44.572Z,19.80
2018-05-31T07:01:10.781Z,19.80
2018-05-31T07:03:37.105Z,19.90
2018-05-31T07:06:03.327Z,19.80
2018-05-31T07:08:30.314Z,19.90
2018-05-31T07:11:00.596Z,19.80
2018-05-31T07:13:28.511Z,19.90
2018-05-31T07:15:54.893Z,19.90
2018-05-31T07:18:21.576Z,19.90
2018-05-31T07:20:47.907Z,19.90
2018-05-31T07:23:14.367Z,19.90
2018-05-31T07:25:41.415Z,20.00
2018-05-31T07:28:07.676Z,19.90
2018-05-31T07:30:34.673Z,20.10
2018-05-31T07:33:01.047Z,20.00
2018-05-31T07:35:27.999Z,20.20
2018-05-31T07:37:54.995Z,20.20
2018-05-31T07:40:21.256Z,20.10
2018-05-31T07:42:48.239Z,20.30
2018-05-31T07:45:14.466Z,20.20
2018-05-31T07:47:40.669Z,20.30
2018-05-31T07:50:07.654Z,20.40
2018-05-31T07:52:33.899Z,20.50
2018-05-31T07:55:01.371Z,20.50
2018-05-31T07:57:27.672Z,20.70
2018-05-31T07:59:53.965Z,20.80
2018-05-31T08:02:20.263Z,20.80
2018-05-31T08:04:46.525Z,20.90
2018-05-31T08:07:12.738Z,21.10
2018-05-31T08:09:39.698Z,21.20
2018-05-31T08:12:06.686Z,21.30
2018-05-31T08:14:32.868Z,21.20
2018-05-31T08:16:59.869Z,21.30
2018-05-31T08:19:26.061Z,21.30
2018-05-31T08:21:52.282Z,21.30
2018-05-31T08:24:18.481Z,21.40
2018-05-31T08:26:58.764Z,21.40
2018-05-31T08:29:28.336Z,21.40
2018-05-31T08:31:54.540Z,21.30
2018-05-31T08:34:20.758Z,21.30
2018-05-31T08:36:46.957Z,21.30
2018-05-31T08:39:13.187Z,21.30
2018-05-31T08:41:39.373Z,21.30
2018-05-31T08:44:05.651Z,21.30
2018-05-31T08:46:31.904Z,21.30
2018-05-31T08:48:58.140Z,21.40
2018-05-31T08:51:24.367Z,21.50
2018-05-31T08:53:50.557Z,21.60
2018-05-31T08:56:16.768Z,21.60
2018-05-31T08:58:43.738Z,21.80
2018-05-31T09:01:09.939Z,21.70
2018-05-31T09:03:36.946Z,22.00
2018-05-31T09:06:03.252Z,22.00
2018-05-31T09:08:36.074Z,22.10
2018-05-31T09:11:02.393Z,22.20
2018-05-31T09:13:28.613Z,22.20
2018-05-31T09:15:54.868Z,22.20
2018-05-31T09:18:21.134Z,22.20
2018-05-31T09:20:47.396Z,22.20
2018-05-31T09:23:13.646Z,22.30
2018-05-31T09:25:40.911Z,22.30
2018-05-31T09:28:12.630Z,22.40
2018-05-31T09:30:40.192Z,22.40
2018-05-31T09:33:06.404Z,22.50
2018-05-31T09:35:32.613Z,22.50
2018-05-31T09:37:58.829Z,22.50
2018-05-31T09:40:25.100Z,22.50
2018-05-31T09:42:51.308Z,22.50
2018-05-31T09:45:17.539Z,22.50
2018-05-31T09:47:43.758Z,22.60
2018-05-31T09:50:09.968Z,22.60
2018-05-31T09:52:36.943Z,22.80
2018-05-31T09:55:03.225Z,22.80
2018-05-31T09:57:29.458Z,22.80
2018-05-31T09:59:56.468Z,23.00
2018-05-31T10:02:23.498Z,23.00
2018-05-31T10:04:49.730Z,23.00
2018-05-31T10:07:15.943Z,23.10
2018-05-31T10:09:42.155Z,23.10
2018-05-31T10:12:08.361Z,23.20
2018-05-31T10:14:35.339Z,23.40
2018-05-31T10:17:01.549Z,23.40
2018-05-31T10:19:28.523Z,23.30
2018-05-31T10:21:56.831Z,23.30
2018-05-31T10:24:23.095Z,23.30
2018-05-31T10:26:49.311Z,23.30
2018-05-31T10:29:15.481Z,23.40
2018-05-31T10:31:41.748Z,23.50
2018-05-31T10:34:07.955Z,23.60
2018-05-31T10:36:34.192Z,23.70
2018-05-31T10:39:00.414Z,23.90
2018-05-31T10:41:26.626Z,24.00
2018-05-31T10:44:00.255Z,24.00
2018-05-31T10:46:26.473Z,24.10
2018-05-31T10:48:52.728Z,24.10
2018-05-31T10:51:18.939Z,24.10
2018-05-31T10:53:45.184Z,24.20
2018-05-31T10:56:11.435Z,24.20
2018-05-31T11:01:47.756Z,24.10
2018-05-31T11:04:22.608Z,24.10
2018-05-31T11:06:48.811Z,24.10
2018-05-31T11:15:13.244Z,23.70
2018-05-31T11:17:40.522Z,23.70
2018-05-31T11:20:06.749Z,23.70
2018-05-31T11:22:33.062Z,23.60
2018-05-31T11:24:59.303Z,23.60
2018-05-31T11:27:25.536Z,23.50
2018-05-31T11:32:50.529Z,23.50
2018-05-31T11:35:16.766Z,23.40
2018-05-31T11:37:42.967Z,23.40
2018-05-31T11:40:09.184Z,23.40
2018-05-31T11:42:48.152Z,23.40
2018-05-31T11:45:14.438Z,23.40
2018-05-31T11:47:40.673Z,23.40
2018-05-31T11:50:06.873Z,23.40
2018-05-31T11:52:33.840Z,23.50
2018-05-31T11:55:00.104Z,23.50
2018-05-31T11:57:26.364Z,23.70
2018-05-31T11:59:52.604Z,23.70
2018-05-31T12:02:25.881Z,23.80
2018-05-31T12:04:52.089Z,23.70
2018-05-31T12:10:12.276Z,23.90
2018-05-31T12:12:38.523Z,24.00
2018-05-31T12:15:04.783Z,24.20
2018-05-31T12:17:31.775Z,24.30
2018-05-31T12:19:57.985Z,24.30
2018-05-31T12:22:24.226Z,24.40
2018-05-31T12:24:51.536Z,24.50
2018-05-31T12:27:17.807Z,24.50
2018-05-31T12:29:44.107Z,24.50
2018-05-31T12:32:10.372Z,24.60
2018-05-31T12:34:36.686Z,24.70
2018-05-31T12:37:03.009Z,24.80
2018-05-31T12:39:29.269Z,24.90
2018-05-31T12:41:55.519Z,24.90
2018-05-31T12:44:21.776Z,24.80
2018-05-31T12:46:48.793Z,24.90
2018-05-31T12:49:19.172Z,24.90
2018-05-31T12:51:45.396Z,25.00
2018-05-31T12:54:11.657Z,25.00
2018-05-31T12:56:37.898Z,25.00
2018-05-31T12:59:04.147Z,25.10
2018-05-31T13:01:30.425Z,25.10
2018-05-31T13:03:56.716Z,25.20
2018-05-31T13:06:23.718Z,25.00
2018-05-31T13:08:53.944Z,24.90
2018-05-31T13:11:20.266Z,24.90
2018-05-31T13:13:46.534Z,24.90
2018-05-31T13:16:13.577Z,25.10
2018-05-31T13:18:40.599Z,25.30
2018-05-31T13:21:06.894Z,25.30
2018-05-31T13:23:33.233Z,25.50
2018-05-31T13:25:59.526Z,25.70
2018-05-31T13:28:26.543Z,26.00
2018-05-31T13:30:52.805Z,26.00
2018-05-31T13:33:19.109Z,26.00
2018-05-31T13:35:45.403Z,25.90
2018-05-31T13:38:11.676Z,25.80
2018-05-31T13:40:37.929Z,25.70
2018-05-31T13:43:04.263Z,25.80
2018-05-31T13:45:31.251Z,25.90
2018-05-31T13:47:57.551Z,25.90
2018-05-31T13:50:23.872Z,25.90
2018-05-31T13:52:50.154Z,25.80
2018-05-31T13:55:16.413Z,25.90
2018-05-31T13:57:42.673Z,25.90
2018-05-31T14:00:08.987Z,25.90
2018-05-31T14:02:35.264Z,25.90
2018-05-31T14:05:01.552Z,25.90
2018-05-31T14:07:27.875Z,25.90
2018-05-31T14:09:54.179Z,25.80
2018-05-31T14:12:21.220Z,25.70
2018-05-31T14:14:48.238Z,25.70
2018-05-31T14:17:14.565Z,25.70
2018-05-31T14:19:40.870Z,25.70
2018-05-31T14:22:07.127Z,25.80
2018-05-31T14:24:33.445Z,25.90
2018-05-31T14:26:59.700Z,26.00
2018-05-31T14:29:25.943Z,26.00
2018-05-31T14:31:52.247Z,25.90
2018-05-31T14:34:18.492Z,25.90
2018-05-31T14:36:44.786Z,25.90
2018-05-31T14:39:11.081Z,25.90
2018-05-31T14:41:37.408Z,25.90
2018-05-31T14:44:03.745Z,25.90
2018-05-31T14:46:30.747Z,25.90
2018-05-31T14:48:57.039Z,25.80
2018-05-31T14:51:23.319Z,25.90
2018-05-31T14:53:49.583Z,25.90
2018-05-31T14:56:15.898Z,25.90
2018-05-31T14:58:42.890Z,25.90
2018-05-31T15:01:09.126Z,25.90
2018-05-31T15:03:35.383Z,25.90
2018-05-31T15:06:01.715Z,26.00
2018-05-31T15:08:27.955Z,25.90
2018-05-31T15:10:54.994Z,26.00
2018-05-31T15:13:21.240Z,25.90
2018-05-31T15:15:48.304Z,26.10
2018-05-31T15:18:14.623Z,26.00
2018-05-31T15:20:41.613Z,26.10
2018-05-31T15:23:07.918Z,26.00
2018-05-31T15:25:34.214Z,26.00
2018-05-31T15:28:01.344Z,26.10
2018-05-31T15:30:27.605Z,26.10
2018-05-31T15:32:54.620Z,26.20
2018-05-31T15:35:20.913Z,26.10
2018-05-31T15:37:47.181Z,26.10
2018-05-31T15:40:13.485Z,26.10
2018-05-31T15:42:39.820Z,26.10
2018-05-31T15:45:06.095Z,26.10
2018-05-31T15:47:33.094Z,25.90
2018-05-31T15:49:59.329Z,25.90
2018-05-31T15:52:25.636Z,26.00
2018-05-31T15:54:51.870Z,26.00
2018-05-31T15:57:18.163Z,26.00
2018-05-31T15:59:44.433Z,26.10
2018-05-31T16:02:10.696Z,26.10
2018-05-31T16:04:37.010Z,26.00
2018-05-31T16:07:03.299Z,26.00
2018-05-31T16:09:29.565Z,26.10
2018-05-31T16:11:55.967Z,26.10
2018-05-31T16:14:22.209Z,26.10
2018-05-31T16:16:48.511Z,26.10
2018-05-31T16:19:14.817Z,26.10
2018-05-31T16:21:41.842Z,26.00
2018-05-31T16:24:08.147Z,26.00
2018-05-31T16:26:34.423Z,26.00
2018-05-31T16:29:01.424Z,25.90
2018-05-31T16:31:27.655Z,25.80
2018-05-31T16:33:53.996Z,25.90
2018-05-31T16:36:22.333Z,25.80
2018-05-31T16:38:48.638Z,25.70
2018-05-31T16:41:15.707Z,25.60
2018-05-31T16:43:42.003Z,25.60
2018-05-31T16:46:08.248Z,25.60
2018-05-31T16:48:35.201Z,25.50
2018-05-31T16:51:02.201Z,25.40
2018-05-31T16:53:28.452Z,25.30
2018-05-31T16:55:54.744Z,25.40
2018-05-31T16:58:20.975Z,25.30
2018-05-31T17:00:47.240Z,25.30
2018-05-31T17:03:13.518Z,25.30
2018-05-31T17:05:39.794Z,25.30
2018-05-31T17:08:06.022Z,25.30
2018-05-31T17:10:32.248Z,25.40
2018-05-31T17:12:58.553Z,25.40
2018-05-31T17:15:24.819Z,25.40
2018-05-31T17:17:51.792Z,25.40
2018-05-31T17:20:18.129Z,25.40
2018-05-31T17:22:44.453Z,25.40
2018-05-31T17:25:10.705Z,25.50
2018-05-31T17:27:36.964Z,25.50
2018-05-31T17:30:03.269Z,25.50
2018-05-31T17:32:29.524Z,25.50
2018-05-31T17:34:56.824Z,25.60
2018-05-31T17:37:23.114Z,25.60
2018-05-31T17:39:49.387Z,25.60
2018-05-31T17:42:15.657Z,25.60
2018-05-31T17:44:41.920Z,25.60
2018-05-31T17:47:08.229Z,25.50
2018-05-31T17:49:34.499Z,25.50
2018-05-31T17:52:00.761Z,25.60
2018-05-31T17:54:27.042Z,25.50
2018-05-31T17:56:54.047Z,25.50
2018-05-31T17:59:20.276Z,25.50
2018-05-31T18:01:46.486Z,25.50
2018-05-31T18:04:12.716Z,25.40
2018-05-31T18:06:38.963Z,25.40
2018-05-31T18:09:05.202Z,25.40
2018-05-31T18:11:31.425Z,25.40
2018-05-31T18:13:57.640Z,25.30
2018-05-31T18:16:23.883Z,25.30
2018-05-31T18:18:50.122Z,25.30
2018-05-31T18:21:23.312Z,25.30
2018-05-31T18:23:49.528Z,25.20
2018-05-31T18:26:15.777Z,25.20
2018-05-31T18:28:41.969Z,25.20
2018-05-31T18:31:08.195Z,25.20
2018-05-31T18:33:34.405Z,25.10
2018-05-31T18:36:00.669Z,25.10
2018-05-31T18:38:26.906Z,25.10
2018-05-31T18:40:53.105Z,25.10
2018-05-31T18:43:19.330Z,25.10
2018-05-31T18:45:46.596Z,25.10
2018-05-31T18:48:12.808Z,25.10
2018-05-31T18:50:39.044Z,25.10
2018-05-31T18:53:05.260Z,25.00
2018-05-31T18:55:32.584Z,25.00
2018-05-31T18:57:58.816Z,25.00
2018-05-31T19:00:25.040Z,25.00
2018-05-31T19:02:51.255Z,25.00
2018-05-31T19:05:18.232Z,25.00
2018-05-31T19:07:44.693Z,24.90
2018-05-31T19:10:10.914Z,24.90
2018-05-31T19:15:49.918Z,24.90
2018-05-31T19:18:22.114Z,24.90
2018-05-31T19:20:48.352Z,24.90
2018-05-31T19:23:14.595Z,24.80
2018-05-31T19:25:41.864Z,24.80
2018-05-31T19:28:08.078Z,24.80
2018-05-31T19:30:40.311Z,24.80
2018-05-31T19:33:08.272Z,24.80
2018-05-31T19:35:41.575Z,24.70
2018-05-31T19:38:07.835Z,24.60
2018-05-31T19:40:52.748Z,24.30
2018-05-31T19:43:25.067Z,24.00
2018-05-31T19:45:51.281Z,23.70
2018-05-31T19:48:17.527Z,23.40
2018-05-31T19:50:43.796Z,23.20
2018-05-31T19:53:17.016Z,22.50
2018-05-31T19:55:43.242Z,22.50
2018-05-31T19:58:15.493Z,22.10
2018-05-31T20:00:52.023Z,21.10
2018-05-31T20:03:24.369Z,21.10
2018-05-31T20:05:50.628Z,20.70
2018-05-31T20:08:19.005Z,20.40
2018-05-31T20:10:46.262Z,20.20
2018-05-31T20:13:12.628Z,20.00
2018-05-31T20:15:38.850Z,19.80
2018-05-31T20:18:05.815Z,19.50
2018-05-31T20:20:32.046Z,19.50
2018-05-31T20:23:02.154Z,19.50
2018-05-31T20:25:28.413Z,19.40
2018-05-31T20:27:54.647Z,19.30
2018-05-31T20:30:20.904Z,19.30
2018-05-31T20:32:47.156Z,19.30
2018-05-31T20:35:14.117Z,19.20
2018-05-31T20:37:40.348Z,19.10
2018-05-31T20:40:06.617Z,19.20
2018-05-31T20:42:34.910Z,19.10
2018-05-31T20:45:01.150Z,19.10
2018-05-31T20:47:27.344Z,19.10
2018-05-31T20:49:53.583Z,19.00
2018-05-31T20:52:19.815Z,19.00
2018-05-31T20:55:11.489Z,18.90
2018-05-31T20:57:37.727Z,18.80
2018-05-31T21:00:03.983Z,18.70
2018-05-31T21:02:30.242Z,18.60
2018-05-31T21:04:56.531Z,18.50
2018-05-31T21:07:22.784Z,18.50
2018-05-31T21:09:49.058Z,18.40
2018-05-31T21:12:15.355Z,18.50
2018-05-31T21:15:00.080Z,18.40
2018-05-31T21:17:26.324Z,18.40
2018-05-31T21:19:52.559Z,18.30
2018-05-31T21:22:18.788Z,18.30
2018-05-31T21:24:46.234Z,18.30
2018-05-31T21:27:12.591Z,18.30
2018-05-31T21:29:38.809Z,18.20
2018-05-31T21:32:05.046Z,18.20
2018-05-31T21:34:31.244Z,18.20
2018-05-31T21:36:57.478Z,18.30
2018-05-31T21:39:23.718Z,18.30
2018-05-31T21:41:49.923Z,18.30
2018-05-31T21:44:16.177Z,18.30
2018-05-31T21:46:42.412Z,18.30
2018-05-31T21:49:09.396Z,18.20
2018-05-31T21:51:35.660Z,18.20
2018-05-31T21:54:01.954Z,18.20
2018-05-31T21:56:28.205Z,18.20
2018-05-31T21:58:54.423Z,18.20
2018-05-31T22:01:20.715Z,18.20
2018-05-31T22:03:46.940Z,18.20
2018-05-31T22:06:13.919Z,18.10
2018-05-31T22:08:40.154Z,18.10
2018-05-31T22:11:06.372Z,18.10
2018-05-31T22:13:32.594Z,18.10
2018-05-31T22:15:58.826Z,18.10
2018-05-31T22:18:25.033Z,18.10
2018-05-31T22:20:51.971Z,18.20
2018-05-31T22:23:18.961Z,18.20
2018-05-31T22:25:45.228Z,18.20
2018-05-31T22:28:11.444Z,18.20
2018-05-31T22:30:37.631Z,18.20
2018-05-31T22:33:03.866Z,18.30
2018-05-31T22:35:30.077Z,18.30
2018-05-31T22:37:56.299Z,18.40
2018-05-31T22:40:23.225Z,18.50
2018-05-31T22:42:49.484Z,18.50
2018-05-31T22:45:15.694Z,18.50
2018-05-31T22:47:42.615Z,18.60
2018-05-31T22:50:08.874Z,18.50
2018-05-31T22:52:35.070Z,18.60
2018-05-31T22:55:01.304Z,18.60
2018-05-31T22:57:28.206Z,18.60
2018-05-31T22:59:54.420Z,18.50
2018-05-31T23:02:20.631Z,18.50
2018-05-31T23:04:46.813Z,18.50
2018-05-31T23:07:13.027Z,18.40
2018-05-31T23:09:39.207Z,18.30
2018-05-31T23:12:06.156Z,18.40
2018-05-31T23:14:35.199Z,18.40
2018-05-31T23:17:01.426Z,18.30
2018-05-31T23:19:27.637Z,18.40
2018-05-31T23:21:53.836Z,18.40
2018-05-31T23:24:20.056Z,18.40
2018-05-31T23:26:46.978Z,18.30
2018-05-31T23:29:13.168Z,18.20
2018-05-31T23:31:39.399Z,18.20
2018-05-31T23:34:05.638Z,18.20
2018-05-31T23:36:31.844Z,18.20
2018-05-31T23:38:58.103Z,18.20
2018-05-31T23:41:24.306Z,18.20
2018-05-31T23:43:50.555Z,18.10
2018-05-31T23:46:17.808Z,18.10
2018-05-31T23:48:44.078Z,18.10
2018-05-31T23:51:11.009Z,18.10
2018-05-31T23:53:37.988Z,18.10
2018-05-31T23:56:04.261Z,18.00
2018-05-31T23:58:30.528Z,18.10
